sensor_id;sensor_type;location;lat;lon;timestamp;temperature;humidity
34646;DHT22;20857;47.808;12.482;2023-06-22T00:00:27;18.20;99.90
34646;DHT22;20857;47.808;12.482;2023-06-22T00:02:52;18.20;99.90
34646;DHT22;20857;47.808;12.482;2023-06-22T00:05:18;18.10;99.90
34646;DHT22;20857;47.808;12.482;2023-06-22T00:07:43;18.10;99.90
34646;DHT22;20857;47.808;12.482;2023-06-22T00:10:09;18.20;99.90
34646;DHT22;20857;47.808;12.482;2023-06-22T00:12:34;18.20;99.90
34646;DHT22;20857;47.808;12.482;2023-06-22T00:15:00;18.20;99.90
34646;DHT22;20857;47.808;12.482;2023-06-22T00:17:25;18.30;99.90
34646;DHT22;20857;47.808;12.482;2023-06-22T00:19:51;18.30;99.90
34646;DHT22;20857;47.808;12.482;2023-06-22T00:22:19;18.20;99.90
34646;DHT22;20857;47.808;12.482;2023-06-22T00:24:53;18.10;99.90
34646;DHT22;20857;47.808;12.482;2023-06-22T00:27:19;18.10;99.90
34646;DHT22;20857;47.808;12.482;2023-06-22T00:29:44;18.10;99.90
34646;DHT22;20857;47.808;12.482;2023-06-22T00:32:10;18.10;99.90
34646;DHT22;20857;47.808;12.482;2023-06-22T00:34:35;18.00;99.90
34646;DHT22;20857;47.808;12.482;2023-06-22T00:37:01;18.00;99.90
34646;DHT22;20857;47.808;12.482;2023-06-22T00:39:26;18.00;99.90
34646;DHT22;20857;47.808;12.482;2023-06-22T00:41:52;18.10;99.90
34646;DHT22;20857;47.808;12.482;2023-06-22T00:44:17;18.10;99.90
34646;DHT22;20857;47.808;12.482;2023-06-22T00:46:43;18.20;99.90
34646;DHT22;20857;47.808;12.482;2023-06-22T00:49:08;18.30;99.90
34646;DHT22;20857;47.808;12.482;2023-06-22T00:51:34;18.40;99.90
34646;DHT22;20857;47.808;12.482;2023-06-22T00:54:03;18.50;99.90
34646;DHT22;20857;47.808;12.482;2023-06-22T00:56:30;18.70;99.90
34646;DHT22;20857;47.808;12.482;2023-06-22T00:58:56;18.70;99.90
34646;DHT22;20857;47.808;12.482;2023-06-22T01:01:22;18.60;99.90
34646;DHT22;20857;47.808;12.482;2023-06-22T01:03:48;18.30;99.90
34646;DHT22;20857;47.808;12.482;2023-06-22T01:06:15;18.30;99.90
34646;DHT22;20857;47.808;12.482;2023-06-22T01:08:49;18.10;99.90
34646;DHT22;20857;47.808;12.482;2023-06-22T01:13:49;17.90;99.90
34646;DHT22;20857;47.808;12.482;2023-06-22T01:16:17;17.90;99.90
34646;DHT22;20857;47.808;12.482;2023-06-22T01:18:45;17.90;99.90
34646;DHT22;20857;47.808;12.482;2023-06-22T01:21:12;17.90;99.90
34646;DHT22;20857;47.808;12.482;2023-06-22T01:23:50;17.80;99.90
34646;DHT22;20857;47.808;12.482;2023-06-22T01:28:57;17.40;99.90
34646;DHT22;20857;47.808;12.482;2023-06-22T01:31:25;17.30;99.90
34646;DHT22;20857;47.808;12.482;2023-06-22T01:33:53;17.40;99.90
34646;DHT22;20857;47.808;12.482;2023-06-22T01:36:19;17.30;99.90
34646;DHT22;20857;47.808;12.482;2023-06-22T01:38:47;17.40;99.90
34646;DHT22;20857;47.808;12.482;2023-06-22T01:41:12;17.40;99.90
34646;DHT22;20857;47.808;12.482;2023-06-22T01:43:38;17.40;99.90
34646;DHT22;20857;47.808;12.482;2023-06-22T01:46:04;17.20;99.90
34646;DHT22;20857;47.808;12.482;2023-06-22T01:48:29;17.20;99.90
34646;DHT22;20857;47.808;12.482;2023-06-22T01:50:55;17.10;99.90
34646;DHT22;20857;47.808;12.482;2023-06-22T01:53:21;17.10;99.90
34646;DHT22;20857;47.808;12.482;2023-06-22T01:55:47;17.10;99.90
34646;DHT22;20857;47.808;12.482;2023-06-22T01:58:13;17.10;99.90
34646;DHT22;20857;47.808;12.482;2023-06-22T02:00:38;17.20;99.90
34646;DHT22;20857;47.808;12.482;2023-06-22T02:03:10;17.20;99.90
34646;DHT22;20857;47.808;12.482;2023-06-22T02:05:38;17.20;99.90
34646;DHT22;20857;47.808;12.482;2023-06-22T02:08:09;17.20;99.90
34646;DHT22;20857;47.808;12.482;2023-06-22T02:10:36;17.20;99.90
34646;DHT22;20857;47.808;12.482;2023-06-22T02:13:05;17.10;99.90
34646;DHT22;20857;47.808;12.482;2023-06-22T02:15:31;17.00;99.90
34646;DHT22;20857;47.808;12.482;2023-06-22T02:17:57;17.00;99.90
34646;DHT22;20857;47.808;12.482;2023-06-22T02:20:23;17.00;99.90
34646;DHT22;20857;47.808;12.482;2023-06-22T02:22:48;17.00;99.90
34646;DHT22;20857;47.808;12.482;2023-06-22T02:25:14;16.90;99.90
34646;DHT22;20857;47.808;12.482;2023-06-22T02:27:39;16.80;99.90
34646;DHT22;20857;47.808;12.482;2023-06-22T02:30:08;16.90;99.90
34646;DHT22;20857;47.808;12.482;2023-06-22T02:32:34;16.80;99.90
34646;DHT22;20857;47.808;12.482;2023-06-22T02:35:00;16.80;99.90
34646;DHT22;20857;47.808;12.482;2023-06-22T02:37:29;16.80;99.90
34646;DHT22;20857;47.808;12.482;2023-06-22T02:39:55;16.80;99.90
34646;DHT22;20857;47.808;12.482;2023-06-22T02:42:20;16.80;99.90
34646;DHT22;20857;47.808;12.482;2023-06-22T02:44:47;16.90;99.90
34646;DHT22;20857;47.808;12.482;2023-06-22T02:47:12;16.80;99.90
34646;DHT22;20857;47.808;12.482;2023-06-22T02:49:38;16.80;99.90
34646;DHT22;20857;47.808;12.482;2023-06-22T02:52:03;16.80;99.90
34646;DHT22;20857;47.808;12.482;2023-06-22T02:54:31;16.80;99.90
34646;DHT22;20857;47.808;12.482;2023-06-22T02:56:56;16.80;99.90
34646;DHT22;20857;47.808;12.482;2023-06-22T02:59:22;16.70;99.90
34646;DHT22;20857;47.808;12.482;2023-06-22T03:01:49;16.70;99.90
34646;DHT22;20857;47.808;12.482;2023-06-22T03:04:15;16.80;99.90
34646;DHT22;20857;47.808;12.482;2023-06-22T03:06:41;16.80;99.90
34646;DHT22;20857;47.808;12.482;2023-06-22T03:09:06;16.80;99.90
34646;DHT22;20857;47.808;12.482;2023-06-22T03:11:32;16.80;99.90
34646;DHT22;20857;47.808;12.482;2023-06-22T03:13:58;16.80;99.90
34646;DHT22;20857;47.808;12.482;2023-06-22T03:16:24;16.80;99.90
34646;DHT22;20857;47.808;12.482;2023-06-22T03:18:50;16.70;99.90
34646;DHT22;20857;47.808;12.482;2023-06-22T03:21:15;16.70;99.90
34646;DHT22;20857;47.808;12.482;2023-06-22T03:23:42;16.60;99.90
34646;DHT22;20857;47.808;12.482;2023-06-22T03:26:08;16.60;99.90
34646;DHT22;20857;47.808;12.482;2023-06-22T03:28:34;16.60;99.90
34646;DHT22;20857;47.808;12.482;2023-06-22T03:30:59;16.60;99.90
34646;DHT22;20857;47.808;12.482;2023-06-22T03:33:25;16.50;99.90
34646;DHT22;20857;47.808;12.482;2023-06-22T03:35:50;16.50;99.90
34646;DHT22;20857;47.808;12.482;2023-06-22T03:38:16;16.50;99.90
34646;DHT22;20857;47.808;12.482;2023-06-22T03:40:41;16.60;99.90
34646;DHT22;20857;47.808;12.482;2023-06-22T03:43:07;16.70;99.90
34646;DHT22;20857;47.808;12.482;2023-06-22T03:45:33;16.70;99.90
34646;DHT22;20857;47.808;12.482;2023-06-22T03:47:58;16.80;99.90
34646;DHT22;20857;47.808;12.482;2023-06-22T03:50:24;16.80;99.90
34646;DHT22;20857;47.808;12.482;2023-06-22T03:52:49;16.90;99.90
34646;DHT22;20857;47.808;12.482;2023-06-22T03:55:16;17.00;99.90
34646;DHT22;20857;47.808;12.482;2023-06-22T03:57:42;17.00;99.90
34646;DHT22;20857;47.808;12.482;2023-06-22T04:00:07;17.00;99.90
34646;DHT22;20857;47.808;12.482;2023-06-22T04:02:33;17.10;99.90
34646;DHT22;20857;47.808;12.482;2023-06-22T04:04:59;17.10;99.90
34646;DHT22;20857;47.808;12.482;2023-06-22T04:07:24;17.30;99.90
34646;DHT22;20857;47.808;12.482;2023-06-22T04:09:50;17.40;99.90
34646;DHT22;20857;47.808;12.482;2023-06-22T04:12:15;17.40;99.90
34646;DHT22;20857;47.808;12.482;2023-06-22T04:14:41;17.30;99.90
34646;DHT22;20857;47.808;12.482;2023-06-22T04:17:06;17.50;99.90
34646;DHT22;20857;47.808;12.482;2023-06-22T04:19:32;17.40;99.90
34646;DHT22;20857;47.808;12.482;2023-06-22T04:21:57;17.40;99.90
34646;DHT22;20857;47.808;12.482;2023-06-22T04:24:23;17.50;99.90
34646;DHT22;20857;47.808;12.482;2023-06-22T04:26:48;17.70;99.90
34646;DHT22;20857;47.808;12.482;2023-06-22T04:29:14;17.70;99.90
34646;DHT22;20857;47.808;12.482;2023-06-22T04:31:39;17.70;99.90
34646;DHT22;20857;47.808;12.482;2023-06-22T04:34:06;17.80;99.90
34646;DHT22;20857;47.808;12.482;2023-06-22T04:36:41;17.80;99.90
34646;DHT22;20857;47.808;12.482;2023-06-22T04:39:07;17.90;99.90
34646;DHT22;20857;47.808;12.482;2023-06-22T04:41:35;17.90;99.90
34646;DHT22;20857;47.808;12.482;2023-06-22T04:46:35;18.00;99.90
34646;DHT22;20857;47.808;12.482;2023-06-22T04:49:04;18.00;99.90
34646;DHT22;20857;47.808;12.482;2023-06-22T04:51:31;18.30;99.90
34646;DHT22;20857;47.808;12.482;2023-06-22T04:53:57;18.40;99.90
34646;DHT22;20857;47.808;12.482;2023-06-22T04:56:26;18.40;99.90
34646;DHT22;20857;47.808;12.482;2023-06-22T04:58:53;18.60;99.90
34646;DHT22;20857;47.808;12.482;2023-06-22T05:01:21;18.70;99.90
34646;DHT22;20857;47.808;12.482;2023-06-22T05:03:47;19.00;99.90
34646;DHT22;20857;47.808;12.482;2023-06-22T05:06:13;19.10;99.90
34646;DHT22;20857;47.808;12.482;2023-06-22T05:08:40;19.00;99.90
34646;DHT22;20857;47.808;12.482;2023-06-22T05:11:05;19.10;99.90
34646;DHT22;20857;47.808;12.482;2023-06-22T05:13:31;19.10;99.90
34646;DHT22;20857;47.808;12.482;2023-06-22T05:15:56;19.20;99.90
34646;DHT22;20857;47.808;12.482;2023-06-22T05:18:27;19.20;99.90
34646;DHT22;20857;47.808;12.482;2023-06-22T05:20:54;19.30;99.90
34646;DHT22;20857;47.808;12.482;2023-06-22T05:23:20;19.30;99.90
34646;DHT22;20857;47.808;12.482;2023-06-22T05:25:45;19.30;99.90
34646;DHT22;20857;47.808;12.482;2023-06-22T05:28:11;19.40;99.90
34646;DHT22;20857;47.808;12.482;2023-06-22T05:30:37;19.50;99.90
34646;DHT22;20857;47.808;12.482;2023-06-22T05:33:03;19.60;99.90
34646;DHT22;20857;47.808;12.482;2023-06-22T05:35:28;19.80;99.90
34646;DHT22;20857;47.808;12.482;2023-06-22T05:37:54;19.90;99.90
34646;DHT22;20857;47.808;12.482;2023-06-22T05:40:20;20.20;99.90
34646;DHT22;20857;47.808;12.482;2023-06-22T05:42:46;20.40;99.90
34646;DHT22;20857;47.808;12.482;2023-06-22T05:45:11;20.50;99.90
34646;DHT22;20857;47.808;12.482;2023-06-22T05:47:37;20.60;99.90
34646;DHT22;20857;47.808;12.482;2023-06-22T05:50:02;20.80;99.90
34646;DHT22;20857;47.808;12.482;2023-06-22T05:52:32;21.20;99.90
34646;DHT22;20857;47.808;12.482;2023-06-22T05:54:57;21.30;99.90
34646;DHT22;20857;47.808;12.482;2023-06-22T05:57:23;21.50;99.90
34646;DHT22;20857;47.808;12.482;2023-06-22T05:59:48;21.60;99.90
34646;DHT22;20857;47.808;12.482;2023-06-22T06:02:14;21.60;99.90
34646;DHT22;20857;47.808;12.482;2023-06-22T06:04:40;21.70;99.90
34646;DHT22;20857;47.808;12.482;2023-06-22T06:07:05;21.80;99.90
34646;DHT22;20857;47.808;12.482;2023-06-22T06:09:30;21.90;99.90
34646;DHT22;20857;47.808;12.482;2023-06-22T06:11:56;22.10;99.90
34646;DHT22;20857;47.808;12.482;2023-06-22T06:14:21;22.20;99.90
34646;DHT22;20857;47.808;12.482;2023-06-22T06:16:48;22.30;99.90
34646;DHT22;20857;47.808;12.482;2023-06-22T06:19:13;22.30;99.90
34646;DHT22;20857;47.808;12.482;2023-06-22T06:21:39;22.20;99.90
34646;DHT22;20857;47.808;12.482;2023-06-22T06:24:04;22.40;99.90
34646;DHT22;20857;47.808;12.482;2023-06-22T06:26:30;22.30;99.90
34646;DHT22;20857;47.808;12.482;2023-06-22T06:28:59;22.30;99.90
34646;DHT22;20857;47.808;12.482;2023-06-22T06:31:25;22.30;99.90
34646;DHT22;20857;47.808;12.482;2023-06-22T06:33:52;22.30;99.90
34646;DHT22;20857;47.808;12.482;2023-06-22T06:36:19;22.30;99.90
34646;DHT22;20857;47.808;12.482;2023-06-22T06:38:44;22.40;99.90
34646;DHT22;20857;47.808;12.482;2023-06-22T06:41:13;22.50;99.90
34646;DHT22;20857;47.808;12.482;2023-06-22T06:43:38;22.70;99.90
34646;DHT22;20857;47.808;12.482;2023-06-22T06:46:04;22.80;99.90
34646;DHT22;20857;47.808;12.482;2023-06-22T06:48:29;22.90;99.90
34646;DHT22;20857;47.808;12.482;2023-06-22T06:50:54;23.00;99.90
34646;DHT22;20857;47.808;12.482;2023-06-22T06:53:20;23.10;99.90
34646;DHT22;20857;47.808;12.482;2023-06-22T06:55:45;23.30;99.90
34646;DHT22;20857;47.808;12.482;2023-06-22T06:58:11;23.50;99.90
34646;DHT22;20857;47.808;12.482;2023-06-22T07:00:38;23.60;99.90
34646;DHT22;20857;47.808;12.482;2023-06-22T07:03:04;23.70;99.90
34646;DHT22;20857;47.808;12.482;2023-06-22T07:05:30;23.90;99.90
34646;DHT22;20857;47.808;12.482;2023-06-22T07:07:55;23.90;99.90
34646;DHT22;20857;47.808;12.482;2023-06-22T07:10:21;24.00;99.90
34646;DHT22;20857;47.808;12.482;2023-06-22T07:12:46;24.20;99.90
34646;DHT22;20857;47.808;12.482;2023-06-22T07:15:13;24.20;99.90
34646;DHT22;20857;47.808;12.482;2023-06-22T07:17:39;24.40;99.90
34646;DHT22;20857;47.808;12.482;2023-06-22T07:20:06;24.50;99.90
34646;DHT22;20857;47.808;12.482;2023-06-22T07:22:38;24.60;99.90
34646;DHT22;20857;47.808;12.482;2023-06-22T07:25:04;24.60;99.90
34646;DHT22;20857;47.808;12.482;2023-06-22T07:27:43;24.60;99.90
34646;DHT22;20857;47.808;12.482;2023-06-22T07:30:09;24.70;99.90
34646;DHT22;20857;47.808;12.482;2023-06-22T07:32:35;24.80;99.90
34646;DHT22;20857;47.808;12.482;2023-06-22T07:35:01;24.90;99.90
34646;DHT22;20857;47.808;12.482;2023-06-22T07:37:27;25.00;99.90
34646;DHT22;20857;47.808;12.482;2023-06-22T07:39:53;25.10;99.90
34646;DHT22;20857;47.808;12.482;2023-06-22T07:42:24;25.20;99.90
34646;DHT22;20857;47.808;12.482;2023-06-22T07:44:49;25.30;99.90
34646;DHT22;20857;47.808;12.482;2023-06-22T07:47:16;25.50;99.90
34646;DHT22;20857;47.808;12.482;2023-06-22T07:49:43;25.70;99.90
34646;DHT22;20857;47.808;12.482;2023-06-22T07:52:08;25.80;99.90
34646;DHT22;20857;47.808;12.482;2023-06-22T07:54:34;25.90;99.90
34646;DHT22;20857;47.808;12.482;2023-06-22T07:56:59;26.00;99.90
34646;DHT22;20857;47.808;12.482;2023-06-22T07:59:25;26.10;99.90
34646;DHT22;20857;47.808;12.482;2023-06-22T08:01:50;26.20;99.90
34646;DHT22;20857;47.808;12.482;2023-06-22T08:04:16;26.10;99.90
34646;DHT22;20857;47.808;12.482;2023-06-22T08:06:41;26.20;99.90
34646;DHT22;20857;47.808;12.482;2023-06-22T08:09:07;26.30;99.90
34646;DHT22;20857;47.808;12.482;2023-06-22T08:11:32;26.40;99.90
34646;DHT22;20857;47.808;12.482;2023-06-22T08:13:59;26.40;99.90
34646;DHT22;20857;47.808;12.482;2023-06-22T08:16:24;26.30;99.90
34646;DHT22;20857;47.808;12.482;2023-06-22T08:18:50;26.40;99.90
34646;DHT22;20857;47.808;12.482;2023-06-22T08:21:15;26.30;99.90
34646;DHT22;20857;47.808;12.482;2023-06-22T08:23:41;26.40;99.90
34646;DHT22;20857;47.808;12.482;2023-06-22T08:26:07;26.60;99.90
34646;DHT22;20857;47.808;12.482;2023-06-22T08:28:32;26.70;99.90
34646;DHT22;20857;47.808;12.482;2023-06-22T08:30:59;26.90;99.90
34646;DHT22;20857;47.808;12.482;2023-06-22T08:33:24;26.90;99.90
34646;DHT22;20857;47.808;12.482;2023-06-22T08:35:57;27.00;99.90
34646;DHT22;20857;47.808;12.482;2023-06-22T08:38:23;27.20;99.90
34646;DHT22;20857;47.808;12.482;2023-06-22T08:40:48;27.20;99.90
34646;DHT22;20857;47.808;12.482;2023-06-22T08:43:14;27.40;99.90
34646;DHT22;20857;47.808;12.482;2023-06-22T08:45:39;27.60;99.90
34646;DHT22;20857;47.808;12.482;2023-06-22T08:48:05;27.60;99.90
34646;DHT22;20857;47.808;12.482;2023-06-22T08:50:30;27.60;99.90
34646;DHT22;20857;47.808;12.482;2023-06-22T08:52:56;27.70;99.90
34646;DHT22;20857;47.808;12.482;2023-06-22T08:55:24;27.80;99.90
34646;DHT22;20857;47.808;12.482;2023-06-22T08:57:50;27.90;99.90
34646;DHT22;20857;47.808;12.482;2023-06-22T09:00:16;27.90;99.90
34646;DHT22;20857;47.808;12.482;2023-06-22T09:02:43;28.00;99.90
34646;DHT22;20857;47.808;12.482;2023-06-22T09:05:08;28.10;99.90
34646;DHT22;20857;47.808;12.482;2023-06-22T09:07:34;28.10;99.90
34646;DHT22;20857;47.808;12.482;2023-06-22T09:09:59;28.10;99.90
34646;DHT22;20857;47.808;12.482;2023-06-22T09:12:25;28.20;99.90
34646;DHT22;20857;47.808;12.482;2023-06-22T09:14:52;28.30;99.90
34646;DHT22;20857;47.808;12.482;2023-06-22T09:17:18;28.30;99.90
34646;DHT22;20857;47.808;12.482;2023-06-22T09:19:49;28.30;99.90
34646;DHT22;20857;47.808;12.482;2023-06-22T09:22:15;28.30;99.90
34646;DHT22;20857;47.808;12.482;2023-06-22T09:24:40;28.30;99.90
34646;DHT22;20857;47.808;12.482;2023-06-22T09:27:06;28.40;99.90
34646;DHT22;20857;47.808;12.482;2023-06-22T09:29:31;28.40;99.90
34646;DHT22;20857;47.808;12.482;2023-06-22T09:32:00;28.30;99.90
34646;DHT22;20857;47.808;12.482;2023-06-22T09:34:26;28.50;99.90
34646;DHT22;20857;47.808;12.482;2023-06-22T09:36:51;28.70;99.90
34646;DHT22;20857;47.808;12.482;2023-06-22T09:39:20;28.70;99.90
34646;DHT22;20857;47.808;12.482;2023-06-22T09:41:45;28.90;99.90
34646;DHT22;20857;47.808;12.482;2023-06-22T09:44:11;29.10;99.90
34646;DHT22;20857;47.808;12.482;2023-06-22T09:46:36;29.10;99.90
34646;DHT22;20857;47.808;12.482;2023-06-22T09:49:02;29.30;99.90
34646;DHT22;20857;47.808;12.482;2023-06-22T09:51:27;29.50;99.90
34646;DHT22;20857;47.808;12.482;2023-06-22T09:53:53;29.40;99.90
34646;DHT22;20857;47.808;12.482;2023-06-22T09:56:21;29.30;99.90
34646;DHT22;20857;47.808;12.482;2023-06-22T09:58:47;29.40;99.90
34646;DHT22;20857;47.808;12.482;2023-06-22T10:01:12;29.50;99.90
34646;DHT22;20857;47.808;12.482;2023-06-22T10:03:40;29.30;99.90
34646;DHT22;20857;47.808;12.482;2023-06-22T10:06:09;29.10;99.90
34646;DHT22;20857;47.808;12.482;2023-06-22T10:08:35;29.30;99.90
34646;DHT22;20857;47.808;12.482;2023-06-22T10:11:00;29.50;99.90
34646;DHT22;20857;47.808;12.482;2023-06-22T10:13:26;29.60;99.90
34646;DHT22;20857;47.808;12.482;2023-06-22T10:15:52;29.70;99.90
34646;DHT22;20857;47.808;12.482;2023-06-22T10:18:18;29.80;99.90
34646;DHT22;20857;47.808;12.482;2023-06-22T10:20:45;30.00;99.90
34646;DHT22;20857;47.808;12.482;2023-06-22T10:23:10;30.30;99.90
34646;DHT22;20857;47.808;12.482;2023-06-22T10:25:36;30.60;99.90
34646;DHT22;20857;47.808;12.482;2023-06-22T10:28:01;30.70;99.90
34646;DHT22;20857;47.808;12.482;2023-06-22T10:30:27;30.90;99.90
34646;DHT22;20857;47.808;12.482;2023-06-22T10:32:54;30.90;99.90
34646;DHT22;20857;47.808;12.482;2023-06-22T10:35:19;31.00;99.90
34646;DHT22;20857;47.808;12.482;2023-06-22T10:37:45;31.00;99.90
34646;DHT22;20857;47.808;12.482;2023-06-22T10:40:12;31.00;99.90
34646;DHT22;20857;47.808;12.482;2023-06-22T10:42:37;30.80;99.90
34646;DHT22;20857;47.808;12.482;2023-06-22T10:45:03;30.80;99.90
34646;DHT22;20857;47.808;12.482;2023-06-22T10:47:29;30.80;99.90
34646;DHT22;20857;47.808;12.482;2023-06-22T10:49:54;30.90;99.90
34646;DHT22;20857;47.808;12.482;2023-06-22T10:52:19;31.10;99.90
34646;DHT22;20857;47.808;12.482;2023-06-22T10:54:45;31.30;99.90
34646;DHT22;20857;47.808;12.482;2023-06-22T10:57:10;31.40;99.90
34646;DHT22;20857;47.808;12.482;2023-06-22T10:59:36;31.20;99.90
34646;DHT22;20857;47.808;12.482;2023-06-22T11:02:01;31.30;99.90
34646;DHT22;20857;47.808;12.482;2023-06-22T11:04:27;31.50;99.90
34646;DHT22;20857;47.808;12.482;2023-06-22T11:06:53;31.60;99.90
34646;DHT22;20857;47.808;12.482;2023-06-22T11:09:18;31.80;99.90
34646;DHT22;20857;47.808;12.482;2023-06-22T11:11:46;31.90;99.90
34646;DHT22;20857;47.808;12.482;2023-06-22T11:14:12;32.00;99.90
34646;DHT22;20857;47.808;12.482;2023-06-22T11:16:37;32.10;99.90
34646;DHT22;20857;47.808;12.482;2023-06-22T11:19:04;32.10;99.90
34646;DHT22;20857;47.808;12.482;2023-06-22T11:21:30;32.30;99.90
34646;DHT22;20857;47.808;12.482;2023-06-22T11:23:55;32.20;99.90
34646;DHT22;20857;47.808;12.482;2023-06-22T11:26:20;32.30;99.90
34646;DHT22;20857;47.808;12.482;2023-06-22T11:28:46;32.30;99.90
34646;DHT22;20857;47.808;12.482;2023-06-22T11:31:12;32.40;99.90
34646;DHT22;20857;47.808;12.482;2023-06-22T11:33:37;32.60;99.70
34646;DHT22;20857;47.808;12.482;2023-06-22T11:36:03;32.60;99.10
34646;DHT22;20857;47.808;12.482;2023-06-22T11:38:28;32.60;99.90
34646;DHT22;20857;47.808;12.482;2023-06-22T11:40:55;32.90;99.60
34646;DHT22;20857;47.808;12.482;2023-06-22T11:43:21;33.20;99.00
34646;DHT22;20857;47.808;12.482;2023-06-22T11:45:47;33.50;98.70
34646;DHT22;20857;47.808;12.482;2023-06-22T11:48:12;33.60;97.80
34646;DHT22;20857;47.808;12.482;2023-06-22T11:50:37;33.90;98.00
34646;DHT22;20857;47.808;12.482;2023-06-22T11:53:03;34.20;97.30
34646;DHT22;20857;47.808;12.482;2023-06-22T11:55:29;34.50;98.20
34646;DHT22;20857;47.808;12.482;2023-06-22T11:57:55;34.30;96.80
34646;DHT22;20857;47.808;12.482;2023-06-22T12:00:22;33.80;97.80
34646;DHT22;20857;47.808;12.482;2023-06-22T12:02:52;33.60;98.80
34646;DHT22;20857;47.808;12.482;2023-06-22T12:05:20;34.10;99.00
34646;DHT22;20857;47.808;12.482;2023-06-22T12:07:46;34.70;98.00
34646;DHT22;20857;47.808;12.482;2023-06-22T12:10:12;35.30;97.40
34646;DHT22;20857;47.808;12.482;2023-06-22T12:12:37;35.60;96.00
34646;DHT22;20857;47.808;12.482;2023-06-22T12:15:03;35.40;96.50
34646;DHT22;20857;47.808;12.482;2023-06-22T12:17:29;35.10;96.20
34646;DHT22;20857;47.808;12.482;2023-06-22T12:19:56;34.50;95.80
34646;DHT22;20857;47.808;12.482;2023-06-22T12:22:21;34.10;96.50
34646;DHT22;20857;47.808;12.482;2023-06-22T12:24:47;33.60;96.60
34646;DHT22;20857;47.808;12.482;2023-06-22T12:27:12;33.40;97.00
34646;DHT22;20857;47.808;12.482;2023-06-22T12:29:38;33.50;97.90
34646;DHT22;20857;47.808;12.482;2023-06-22T12:32:03;33.50;97.60
34646;DHT22;20857;47.808;12.482;2023-06-22T12:34:29;34.00;97.90
34646;DHT22;20857;47.808;12.482;2023-06-22T12:36:55;34.50;98.90
34646;DHT22;20857;47.808;12.482;2023-06-22T12:39:20;35.40;96.30
34646;DHT22;20857;47.808;12.482;2023-06-22T12:41:46;35.80;95.70
34646;DHT22;20857;47.808;12.482;2023-06-22T12:44:11;35.60;96.80
34646;DHT22;20857;47.808;12.482;2023-06-22T12:46:37;35.40;95.70
34646;DHT22;20857;47.808;12.482;2023-06-22T12:49:04;35.90;94.90
34646;DHT22;20857;47.808;12.482;2023-06-22T12:51:29;36.50;94.30
34646;DHT22;20857;47.808;12.482;2023-06-22T12:53:55;37.30;94.60
34646;DHT22;20857;47.808;12.482;2023-06-22T12:56:21;37.90;93.80
34646;DHT22;20857;47.808;12.482;2023-06-22T12:58:46;38.10;94.60
34646;DHT22;20857;47.808;12.482;2023-06-22T13:01:12;37.90;92.10
34646;DHT22;20857;47.808;12.482;2023-06-22T13:03:38;37.90;92.70
34646;DHT22;20857;47.808;12.482;2023-06-22T13:06:03;38.50;90.40
34646;DHT22;20857;47.808;12.482;2023-06-22T13:08:29;38.50;91.90
34646;DHT22;20857;47.808;12.482;2023-06-22T13:10:55;39.00;90.30
34646;DHT22;20857;47.808;12.482;2023-06-22T13:13:23;39.10;90.10
34646;DHT22;20857;47.808;12.482;2023-06-22T13:15:55;38.70;90.30
34646;DHT22;20857;47.808;12.482;2023-06-22T13:18:20;38.10;90.40
34646;DHT22;20857;47.808;12.482;2023-06-22T13:20:46;37.30;90.40
34646;DHT22;20857;47.808;12.482;2023-06-22T13:23:11;36.30;90.80
34646;DHT22;20857;47.808;12.482;2023-06-22T13:25:37;35.80;90.80
34646;DHT22;20857;47.808;12.482;2023-06-22T13:28:02;35.30;92.80
34646;DHT22;20857;47.808;12.482;2023-06-22T13:30:28;35.60;91.60
34646;DHT22;20857;47.808;12.482;2023-06-22T13:32:54;35.70;92.00
34646;DHT22;20857;47.808;12.482;2023-06-22T13:35:19;36.00;90.20
34646;DHT22;20857;47.808;12.482;2023-06-22T13:37:45;35.80;90.60
34646;DHT22;20857;47.808;12.482;2023-06-22T13:40:10;35.60;91.30
34646;DHT22;20857;47.808;12.482;2023-06-22T13:42:38;35.40;90.60
34646;DHT22;20857;47.808;12.482;2023-06-22T13:45:04;35.10;91.80
34646;DHT22;20857;47.808;12.482;2023-06-22T13:47:29;35.10;92.70
34646;DHT22;20857;47.808;12.482;2023-06-22T13:49:55;35.20;92.10
34646;DHT22;20857;47.808;12.482;2023-06-22T13:52:21;35.40;91.50
34646;DHT22;20857;47.808;12.482;2023-06-22T13:54:46;35.80;92.50
34646;DHT22;20857;47.808;12.482;2023-06-22T13:57:12;36.60;91.60
34646;DHT22;20857;47.808;12.482;2023-06-22T13:59:37;36.80;91.40
34646;DHT22;20857;47.808;12.482;2023-06-22T14:02:03;36.70;91.30
34646;DHT22;20857;47.808;12.482;2023-06-22T14:04:29;37.30;90.30
34646;DHT22;20857;47.808;12.482;2023-06-22T14:06:54;37.40;90.60
34646;DHT22;20857;47.808;12.482;2023-06-22T14:09:21;37.00;91.00
34646;DHT22;20857;47.808;12.482;2023-06-22T14:11:46;37.00;91.20
34646;DHT22;20857;47.808;12.482;2023-06-22T14:14:12;37.00;91.00
34646;DHT22;20857;47.808;12.482;2023-06-22T14:16:37;37.00;91.10
34646;DHT22;20857;47.808;12.482;2023-06-22T14:19:03;37.10;91.50
34646;DHT22;20857;47.808;12.482;2023-06-22T14:21:28;36.40;91.70
34646;DHT22;20857;47.808;12.482;2023-06-22T14:23:54;35.90;91.70
34646;DHT22;20857;47.808;12.482;2023-06-22T14:26:19;35.60;92.20
34646;DHT22;20857;47.808;12.482;2023-06-22T14:28:45;35.20;92.80
34646;DHT22;20857;47.808;12.482;2023-06-22T14:31:13;34.70;93.00
34646;DHT22;20857;47.808;12.482;2023-06-22T14:33:39;34.50;92.80
34646;DHT22;20857;47.808;12.482;2023-06-22T14:36:05;34.80;93.50
34646;DHT22;20857;47.808;12.482;2023-06-22T14:38:30;35.00;94.00
34646;DHT22;20857;47.808;12.482;2023-06-22T14:40:57;35.50;94.20
34646;DHT22;20857;47.808;12.482;2023-06-22T14:43:23;35.60;93.60
34646;DHT22;20857;47.808;12.482;2023-06-22T14:45:51;35.70;93.30
34646;DHT22;20857;47.808;12.482;2023-06-22T14:48:17;35.30;92.90
34646;DHT22;20857;47.808;12.482;2023-06-22T14:50:43;35.30;92.40
34646;DHT22;20857;47.808;12.482;2023-06-22T14:53:09;34.90;93.10
34646;DHT22;20857;47.808;12.482;2023-06-22T14:55:35;34.90;93.10
34646;DHT22;20857;47.808;12.482;2023-06-22T14:58:01;35.60;92.90
34646;DHT22;20857;47.808;12.482;2023-06-22T15:00:27;37.00;92.70
34646;DHT22;20857;47.808;12.482;2023-06-22T15:02:52;37.90;91.20
34646;DHT22;20857;47.808;12.482;2023-06-22T15:05:18;38.90;90.20
34646;DHT22;20857;47.808;12.482;2023-06-22T15:07:43;39.80;90.60
34646;DHT22;20857;47.808;12.482;2023-06-22T15:10:09;40.00;89.00
34646;DHT22;20857;47.808;12.482;2023-06-22T15:12:34;39.80;87.30
34646;DHT22;20857;47.808;12.482;2023-06-22T15:15:00;39.80;86.70